Time;durP1;ratioP1;P1;durP2;ratioP2;P2;SDS_P1;SDS_P2;PMS_P1;PMS_P2;Temp;Humidity;BMP_temperature;BMP_pressure;BME280_temperature;BME280_humidity;BME280_pressure;Samples;Min_cycle;Max_cycle;Signal;HPM_P1;HPM_P2
2024/01/18 00:02:22;;;;;;;2.87;1.10;;;;;;;;;;5057254;28;20048;-68
2024/01/18 00:04:48;;;;;;;6.05;1.08;;;;;;;;;;5046265;28;20053;-69
2024/01/18 00:07:14;;;;;;;5.55;0.88;;;;;;;;;;5050699;28;20090;-69
2024/01/18 00:09:40;;;;;;;4.60;1.08;;;;;;;;;;5052384;28;20049;-69
2024/01/18 00:12:11;;;;;;;5.20;0.88;;;;;;;;;;5052431;28;20049;-68
2024/01/18 00:14:38;;;;;;;6.97;1.45;;;;;;;;;;5047335;28;20041;-70
2024/01/18 00:17:04;;;;;;;4.85;0.90;;;;;;;;;;5047369;28;20098;-70
2024/01/18 00:19:30;;;;;;;7.03;1.00;;;;;;;;;;5046624;28;20037;-68
2024/01/18 00:22:02;;;;;;;5.38;1.20;;;;;;;;;;5051065;28;20134;-68
2024/01/18 00:24:29;;;;;;;3.55;0.80;;;;;;;;;;5035598;28;20045;-67
2024/01/18 00:26:55;;;;;;;3.28;0.80;;;;;;;;;;5062161;28;20132;-70
2024/01/18 00:29:21;;;;;;;6.00;1.15;;;;;;;;;;5039456;28;20231;-69
2024/01/18 00:31:50;;;;;;;7.47;1.20;;;;;;;;;;5041821;28;20267;-67
2024/01/18 00:34:16;;;;;;;3.97;1.25;;;;;;;;;;5044595;28;20449;-67
2024/01/18 00:36:42;;;;;;;3.13;0.85;;;;;;;;;;5047033;28;20556;-71
2024/01/18 00:39:16;;;;;;;2.95;1.00;;;;;;;;;;5048055;28;20071;-68
2024/01/18 00:41:57;;;;;;;4.85;1.42;;;;;;;;;;5044185;28;20049;-67
2024/01/18 00:44:25;;;;;;;6.55;0.98;;;;;;;;;;5047093;28;20045;-69
2024/01/18 00:46:56;;;;;;;3.47;0.90;;;;;;;;;;5047334;28;20481;-68
2024/01/18 00:49:26;;;;;;;4.03;1.10;;;;;;;;;;5050612;28;20682;-67
2024/01/18 00:51:52;;;;;;;3.47;0.82;;;;;;;;;;5046447;28;20136;-67
2024/01/18 00:54:19;;;;;;;2.85;0.80;;;;;;;;;;5045769;28;20412;-67
2024/01/18 00:56:45;;;;;;;2.95;0.73;;;;;;;;;;5082108;28;20057;-68
2024/01/18 00:59:12;;;;;;;3.58;0.90;;;;;;;;;;5048943;28;20060;-68
2024/01/18 01:01:39;;;;;;;3.25;0.70;;;;;;;;;;5048412;28;20353;-67
2024/01/18 01:04:05;;;;;;;3.60;0.60;;;;;;;;;;5052812;28;20501;-67
2024/01/18 01:06:31;;;;;;;2.72;0.52;;;;;;;;;;5050868;28;20059;-69
2024/01/18 01:08:57;;;;;;;2.00;0.60;;;;;;;;;;5050625;28;20049;-66
2024/01/18 01:11:23;;;;;;;5.25;0.82;;;;;;;;;;5049419;28;20328;-66
2024/01/18 01:13:49;;;;;;;4.25;1.10;;;;;;;;;;5048955;28;20182;-68
2024/01/18 01:16:15;;;;;;;8.95;0.80;;;;;;;;;;5051151;28;20053;-69
2024/01/18 01:18:43;;;;;;;3.30;1.05;;;;;;;;;;5051190;28;20060;-67
2024/01/18 01:21:09;;;;;;;6.70;1.00;;;;;;;;;;5048526;28;20072;-67
2024/01/18 01:23:41;;;;;;;5.20;0.90;;;;;;;;;;5049978;28;20039;-66
2024/01/18 01:26:08;;;;;;;3.47;0.80;;;;;;;;;;5044669;28;20178;-67
2024/01/18 01:28:36;;;;;;;4.45;0.85;;;;;;;;;;5046825;28;20049;-67
2024/01/18 01:31:02;;;;;;;5.43;0.93;;;;;;;;;;5039037;28;20119;-68
2024/01/18 01:33:30;;;;;;;4.07;0.93;;;;;;;;;;5058354;28;20040;-69
2024/01/18 01:35:56;;;;;;;6.78;1.20;;;;;;;;;;5054118;28;20390;-69
2024/01/18 01:38:22;;;;;;;3.15;0.80;;;;;;;;;;5049711;28;20118;-68
2024/01/18 01:40:48;;;;;;;5.35;1.08;;;;;;;;;;5065386;28;20469;-67
2024/01/18 01:43:17;;;;;;;3.72;0.70;;;;;;;;;;5051964;28;20079;-68
2024/01/18 01:45:43;;;;;;;3.75;0.60;;;;;;;;;;5048905;28;20057;-67
2024/01/18 01:48:10;;;;;;;4.90;0.77;;;;;;;;;;5058071;28;20095;-68
2024/01/18 01:50:37;;;;;;;4.05;0.85;;;;;;;;;;5047265;28;20059;-68
2024/01/18 01:53:07;;;;;;;3.05;0.80;;;;;;;;;;5051296;28;20080;-68
2024/01/18 01:55:33;;;;;;;3.08;0.60;;;;;;;;;;5047763;28;20079;-68
2024/01/18 01:58:00;;;;;;;2.40;0.75;;;;;;;;;;5043799;28;20033;-68
2024/01/18 02:00:26;;;;;;;5.78;0.80;;;;;;;;;;5046254;28;20122;-69
2024/01/18 02:02:53;;;;;;;2.35;0.73;;;;;;;;;;5046141;28;20055;-66
2024/01/18 02:05:20;;;;;;;4.28;0.80;;;;;;;;;;5038074;28;20048;-66
2024/01/18 02:07:47;;;;;;;2.53;0.88;;;;;;;;;;5047985;28;20049;-67
2024/01/18 02:10:14;;;;;;;4.53;0.82;;;;;;;;;;5046602;28;20131;-67
2024/01/18 02:12:42;;;;;;;4.10;1.13;;;;;;;;;;5043565;28;20057;-66
2024/01/18 02:15:09;;;;;;;3.65;0.95;;;;;;;;;;5046623;28;20504;-67
2024/01/18 02:17:35;;;;;;;3.60;0.93;;;;;;;;;;5046721;28;20069;-66
2024/01/18 02:20:02;;;;;;;2.33;0.82;;;;;;;;;;5046237;28;20749;-68
2024/01/18 02:22:31;;;;;;;1.42;0.52;;;;;;;;;;5045849;28;20045;-66
2024/01/18 02:25:13;;;;;;;4.25;0.82;;;;;;;;;;5048161;28;20045;-67
2024/01/18 02:27:39;;;;;;;5.32;1.40;;;;;;;;;;5052010;28;20072;-68
2024/01/18 02:30:05;;;;;;;2.92;0.73;;;;;;;;;;5048937;28;20094;-67
2024/01/18 02:32:40;;;;;;;2.65;0.80;;;;;;;;;;5059597;28;20147;-67
2024/01/18 02:35:06;;;;;;;6.20;1.23;;;;;;;;;;5051155;28;20132;-69
2024/01/18 02:37:34;;;;;;;5.20;1.00;;;;;;;;;;5046806;28;20049;-68
2024/01/18 02:40:00;;;;;;;2.65;0.80;;;;;;;;;;5050803;28;20045;-67
2024/01/18 02:42:26;;;;;;;6.28;1.08;;;;;;;;;;5052260;28;20267;-68
2024/01/18 02:44:55;;;;;;;4.18;1.17;;;;;;;;;;5050653;28;20055;-67
2024/01/18 02:47:23;;;;;;;3.72;1.08;;;;;;;;;;5044865;28;20102;-68
2024/01/18 02:49:49;;;;;;;7.22;1.10;;;;;;;;;;5042301;28;20041;-67
2024/01/18 02:52:16;;;;;;;4.72;0.93;;;;;;;;;;5045695;28;20053;-66
2024/01/18 02:54:48;;;;;;;6.57;1.42;;;;;;;;;;4965400;28;2474125;-69
2024/01/18 02:57:16;;;;;;;4.60;1.08;;;;;;;;;;5041959;28;20682;-67
2024/01/18 02:59:42;;;;;;;4.75;1.10;;;;;;;;;;5050207;28;20460;-68
2024/01/18 03:02:09;;;;;;;3.22;1.00;;;;;;;;;;5053096;28;20032;-67
2024/01/18 03:04:35;;;;;;;4.28;0.80;;;;;;;;;;5065476;28;20052;-67
2024/01/18 03:07:01;;;;;;;4.88;1.08;;;;;;;;;;5051640;28;20060;-67
2024/01/18 03:09:27;;;;;;;5.07;0.95;;;;;;;;;;5048791;28;20409;-68
2024/01/18 03:11:53;;;;;;;4.70;0.80;;;;;;;;;;5067750;28;20056;-67
2024/01/18 03:14:20;;;;;;;3.55;0.93;;;;;;;;;;5055219;28;20053;-67
2024/01/18 03:16:46;;;;;;;4.90;0.93;;;;;;;;;;5046269;28;20497;-67
2024/01/18 03:19:12;;;;;;;2.97;0.73;;;;;;;;;;5038966;28;20109;-67
2024/01/18 03:21:39;;;;;;;5.20;1.17;;;;;;;;;;5057413;28;20047;-68
2024/01/18 03:24:08;;;;;;;2.90;1.00;;;;;;;;;;5046609;28;20053;-68
2024/01/18 03:26:36;;;;;;;3.45;0.93;;;;;;;;;;5029864;28;20898;-67
2024/01/18 03:29:02;;;;;;;3.95;1.13;;;;;;;;;;5046000;28;20099;-67
2024/01/18 03:31:28;;;;;;;3.35;1.00;;;;;;;;;;5046130;28;20127;-67
2024/01/18 03:33:54;;;;;;;6.03;1.05;;;;;;;;;;5045900;28;20049;-67
2024/01/18 03:36:21;;;;;;;4.93;1.08;;;;;;;;;;5048369;28;20055;-67
2024/01/18 03:38:52;;;;;;;3.75;0.63;;;;;;;;;;5061220;28;20049;-68
2024/01/18 03:41:18;;;;;;;4.22;0.90;;;;;;;;;;5051917;28;20052;-67
2024/01/18 03:43:44;;;;;;;9.07;1.25;;;;;;;;;;5053351;28;20063;-67
2024/01/18 03:46:16;;;;;;;4.05;0.90;;;;;;;;;;5044871;28;20041;-68
2024/01/18 03:48:50;;;;;;;5.88;1.10;;;;;;;;;;5047664;28;20044;-69
2024/01/18 03:51:16;;;;;;;3.65;0.95;;;;;;;;;;5045735;28;20138;-68
2024/01/18 03:53:43;;;;;;;4.10;0.88;;;;;;;;;;5049307;28;20528;-68
2024/01/18 03:56:12;;;;;;;4.72;0.90;;;;;;;;;;5048601;28;20084;-67
2024/01/18 03:58:41;;;;;;;2.35;0.77;;;;;;;;;;5044109;28;20052;-66
2024/01/18 04:01:08;;;;;;;5.57;1.02;;;;;;;;;;5051884;28;20045;-66
2024/01/18 04:03:34;;;;;;;3.78;1.02;;;;;;;;;;5054512;28;20052;-66
2024/01/18 04:06:00;;;;;;;3.50;1.00;;;;;;;;;;5045887;28;20056;-69
2024/01/18 04:08:26;;;;;;;3.92;0.93;;;;;;;;;;5047287;28;20429;-67
2024/01/18 04:10:52;;;;;;;6.07;1.20;;;;;;;;;;5051329;28;20052;-67
2024/01/18 04:13:18;;;;;;;11.23;1.20;;;;;;;;;;5047963;28;20113;-68
2024/01/18 04:15:44;;;;;;;4.15;0.90;;;;;;;;;;5042199;28;20087;-67
2024/01/18 04:18:10;;;;;;;4.38;1.42;;;;;;;;;;5044574;28;20092;-68
2024/01/18 04:20:36;;;;;;;9.50;1.23;;;;;;;;;;5063044;28;20413;-67
2024/01/18 04:23:02;;;;;;;4.25;0.93;;;;;;;;;;5047752;28;20691;-66
2024/01/18 04:25:28;;;;;;;3.65;0.82;;;;;;;;;;5046492;28;20092;-68
2024/01/18 04:27:57;;;;;;;7.57;1.02;;;;;;;;;;5042910;28;20049;-68
2024/01/18 04:30:23;;;;;;;9.95;1.25;;;;;;;;;;5044234;28;20459;-68
2024/01/18 04:32:49;;;;;;;3.40;1.00;;;;;;;;;;5042682;28;20033;-66
2024/01/18 04:35:15;;;;;;;4.05;1.33;;;;;;;;;;5045444;28;20136;-70
2024/01/18 04:37:41;;;;;;;4.10;0.85;;;;;;;;;;5046736;28;20194;-67
2024/01/18 04:40:08;;;;;;;8.27;1.70;;;;;;;;;;5062023;28;20544;-68
2024/01/18 04:42:34;;;;;;;5.60;1.00;;;;;;;;;;5037915;28;20084;-68
2024/01/18 04:45:02;;;;;;;6.88;1.02;;;;;;;;;;5039811;28;20041;-67
2024/01/18 04:47:29;;;;;;;4.90;0.90;;;;;;;;;;5046006;28;20052;-66
2024/01/18 04:49:56;;;;;;;5.32;1.50;;;;;;;;;;5043800;28;20079;-67
2024/01/18 04:52:22;;;;;;;5.80;1.30;;;;;;;;;;5044662;28;20056;-66
2024/01/18 04:54:49;;;;;;;7.35;1.33;;;;;;;;;;5047139;28;20068;-66
2024/01/18 04:57:17;;;;;;;2.45;0.75;;;;;;;;;;5043517;28;20083;-66
2024/01/18 04:59:42;;;;;;;6.65;1.10;;;;;;;;;;5037845;28;20152;-66
2024/01/18 05:02:08;;;;;;;3.78;1.17;;;;;;;;;;5046559;28;20367;-67
2024/01/18 05:04:34;;;;;;;6.95;1.10;;;;;;;;;;5045996;28;20065;-68
2024/01/18 05:07:00;;;;;;;6.35;1.20;;;;;;;;;;5044689;28;20037;-66
2024/01/18 05:09:26;;;;;;;3.92;1.00;;;;;;;;;;5046213;28;20045;-66
2024/01/18 05:11:52;;;;;;;5.75;1.50;;;;;;;;;;5049632;28;20055;-67
2024/01/18 05:14:18;;;;;;;7.25;1.20;;;;;;;;;;5043548;28;20120;-67
2024/01/18 05:16:50;;;;;;;6.28;1.00;;;;;;;;;;5047725;28;20432;-67
2024/01/18 05:19:18;;;;;;;3.78;1.00;;;;;;;;;;5040635;28;20046;-68
2024/01/18 05:21:44;;;;;;;6.75;1.08;;;;;;;;;;5046538;28;20045;-68
2024/01/18 05:24:10;;;;;;;3.30;0.80;;;;;;;;;;5045899;28;20171;-66
2024/01/18 05:26:37;;;;;;;5.07;0.85;;;;;;;;;;5046744;28;20461;-68
2024/01/18 05:29:05;;;;;;;5.57;0.88;;;;;;;;;;5045548;28;20052;-67
2024/01/18 05:31:31;;;;;;;5.60;1.55;;;;;;;;;;5045900;28;20557;-69
2024/01/18 05:33:59;;;;;;;6.07;1.10;;;;;;;;;;5047178;28;20428;-70
2024/01/18 05:36:25;;;;;;;3.78;0.90;;;;;;;;;;5046594;28;20056;-68
2024/01/18 05:38:52;;;;;;;3.47;0.75;;;;;;;;;;5044794;28;20540;-69
2024/01/18 05:41:20;;;;;;;7.40;1.98;;;;;;;;;;5043173;28;20493;-69
2024/01/18 05:43:46;;;;;;;3.85;1.00;;;;;;;;;;5050127;28;20053;-67
2024/01/18 05:46:12;;;;;;;4.22;0.93;;;;;;;;;;5061336;28;20119;-66
2024/01/18 05:48:39;;;;;;;5.55;0.80;;;;;;;;;;5049826;28;20049;-70
2024/01/18 05:51:05;;;;;;;4.13;0.98;;;;;;;;;;5048977;28;20079;-67
2024/01/18 05:53:32;;;;;;;5.13;1.10;;;;;;;;;;5045286;28;20058;-69
2024/01/18 05:55:59;;;;;;;6.90;1.48;;;;;;;;;;5048106;28;20053;-69
2024/01/18 05:58:32;;;;;;;3.30;0.73;;;;;;;;;;5049024;28;20513;-69
2024/01/18 06:00:58;;;;;;;3.03;0.85;;;;;;;;;;5051310;28;20048;-70
2024/01/18 06:03:24;;;;;;;6.00;1.40;;;;;;;;;;5052643;28;20055;-68
2024/01/18 06:05:50;;;;;;;4.38;1.23;;;;;;;;;;5061281;28;20048;-67
2024/01/18 06:08:17;;;;;;;3.53;0.80;;;;;;;;;;5052350;28;20056;-68
2024/01/18 06:10:44;;;;;;;9.35;1.10;;;;;;;;;;5061908;28;20059;-68
2024/01/18 06:13:10;;;;;;;9.55;1.42;;;;;;;;;;5067401;28;20057;-69
2024/01/18 06:15:39;;;;;;;7.68;1.27;;;;;;;;;;5056176;28;20064;-68
2024/01/18 06:18:06;;;;;;;4.82;1.33;;;;;;;;;;5048390;28;20106;-69
2024/01/18 06:20:33;;;;;;;6.72;0.90;;;;;;;;;;5052568;28;20260;-68
2024/01/18 06:23:01;;;;;;;6.18;1.00;;;;;;;;;;5061553;28;20052;-69
2024/01/18 06:25:30;;;;;;;5.70;1.10;;;;;;;;;;5048419;28;20105;-68
2024/01/18 06:27:58;;;;;;;4.07;0.90;;;;;;;;;;5056728;28;20238;-67
2024/01/18 06:30:26;;;;;;;6.72;1.00;;;;;;;;;;5053370;28;20171;-69
2024/01/18 06:32:53;;;;;;;7.10;1.27;;;;;;;;;;5052251;28;20424;-68
2024/01/18 06:35:19;;;;;;;4.75;1.27;;;;;;;;;;5047837;28;20059;-68
2024/01/18 06:37:48;;;;;;;2.72;1.00;;;;;;;;;;5052319;28;20069;-69
2024/01/18 06:40:15;;;;;;;8.98;1.50;;;;;;;;;;5045185;28;20049;-69
2024/01/18 06:42:41;;;;;;;5.50;1.17;;;;;;;;;;5042907;28;20056;-68
2024/01/18 06:45:08;;;;;;;7.30;1.77;;;;;;;;;;5046443;28;20057;-68
2024/01/18 06:47:36;;;;;;;7.43;1.20;;;;;;;;;;5047065;28;20682;-70
2024/01/18 06:50:04;;;;;;;5.85;0.95;;;;;;;;;;5048762;28;20641;-69
2024/01/18 06:52:30;;;;;;;7.40;1.58;;;;;;;;;;5048333;28;20564;-69
2024/01/18 06:54:57;;;;;;;8.63;1.45;;;;;;;;;;5049548;28;20061;-69
2024/01/18 06:57:23;;;;;;;6.40;1.48;;;;;;;;;;5048172;28;20053;-68
2024/01/18 06:59:56;;;;;;;6.32;1.58;;;;;;;;;;5048982;28;20382;-71
2024/01/18 07:02:22;;;;;;;14.77;2.17;;;;;;;;;;5043348;28;20151;-72
2024/01/18 07:04:48;;;;;;;6.38;1.35;;;;;;;;;;5049524;28;20198;-72
2024/01/18 07:07:14;;;;;;;6.60;1.80;;;;;;;;;;5051041;28;20515;-73
2024/01/18 07:09:40;;;;;;;6.15;1.42;;;;;;;;;;5058961;28;20041;-72
2024/01/18 07:12:09;;;;;;;9.85;1.60;;;;;;;;;;5046631;28;20497;-72
2024/01/18 07:14:43;;;;;;;6.28;1.58;;;;;;;;;;5048888;28;20087;-73
2024/01/18 07:17:14;;;;;;;3.70;1.10;;;;;;;;;;5051163;28;20049;-72
2024/01/18 07:19:44;;;;;;;5.45;1.30;;;;;;;;;;5051109;28;20048;-72
2024/01/18 07:22:10;;;;;;;8.68;1.75;;;;;;;;;;5046740;28;20463;-74
2024/01/18 07:24:39;;;;;;;8.80;1.48;;;;;;;;;;5056203;28;20068;-72
2024/01/18 07:27:09;;;;;;;8.77;1.92;;;;;;;;;;5047327;28;20041;-72
2024/01/18 07:29:36;;;;;;;7.18;1.30;;;;;;;;;;5048899;28;20045;-70
2024/01/18 07:32:06;;;;;;;6.05;1.27;;;;;;;;;;5046123;28;20045;-71
2024/01/18 07:34:35;;;;;;;8.50;1.55;;;;;;;;;;5044750;28;20565;-68
2024/01/18 07:37:04;;;;;;;3.38;1.20;;;;;;;;;;5046220;28;20049;-70
2024/01/18 07:39:36;;;;;;;7.40;1.58;;;;;;;;;;5049377;28;20049;-74
2024/01/18 07:42:02;;;;;;;7.65;1.45;;;;;;;;;;5044295;28;20045;-66
2024/01/18 07:44:30;;;;;;;7.72;1.10;;;;;;;;;;5062072;28;20171;-71
2024/01/18 07:46:56;;;;;;;7.20;1.60;;;;;;;;;;5058538;28;20389;-68
2024/01/18 07:49:22;;;;;;;4.80;1.33;;;;;;;;;;5046290;28;20489;-74
2024/01/18 07:51:49;;;;;;;7.03;1.27;;;;;;;;;;5046973;28;20066;-71
2024/01/18 07:54:16;;;;;;;15.02;1.67;;;;;;;;;;5059027;28;20065;-66
2024/01/18 07:56:42;;;;;;;9.25;1.08;;;;;;;;;;5046477;28;20056;-73
2024/01/18 07:59:09;;;;;;;5.15;1.40;;;;;;;;;;5042982;28;20455;-73
2024/01/18 08:01:35;;;;;;;9.90;1.65;;;;;;;;;;5045663;28;20090;-74
2024/01/18 08:04:01;;;;;;;8.40;1.23;;;;;;;;;;5042916;28;20047;-74
2024/01/18 08:06:43;;;;;;;10.13;1.27;;;;;;;;;;5044769;28;20049;-74
2024/01/18 08:09:13;;;;;;;5.10;1.40;;;;;;;;;;5043723;28;20495;-74
2024/01/18 08:11:40;;;;;;;6.00;1.38;;;;;;;;;;5044444;28;20057;-74
2024/01/18 08:14:07;;;;;;;6.45;1.52;;;;;;;;;;5043669;28;20056;-72
2024/01/18 08:16:33;;;;;;;6.13;1.02;;;;;;;;;;5060146;28;20076;-74
2024/01/18 08:18:59;;;;;;;7.45;1.30;;;;;;;;;;5047186;28;20522;-73
2024/01/18 08:21:25;;;;;;;6.32;1.00;;;;;;;;;;5045810;28;20558;-71
2024/01/18 08:23:57;;;;;;;9.07;1.23;;;;;;;;;;5043953;28;20060;-73
2024/01/18 08:26:23;;;;;;;8.18;1.33;;;;;;;;;;5044021;28;20994;-73
2024/01/18 08:28:51;;;;;;;6.18;1.20;;;;;;;;;;5035666;28;20044;-76
2024/01/18 08:31:17;;;;;;;12.18;1.88;;;;;;;;;;5042960;28;20157;-73
2024/01/18 08:33:46;;;;;;;6.80;1.10;;;;;;;;;;5043977;28;20053;-75
2024/01/18 08:36:13;;;;;;;6.18;1.27;;;;;;;;;;5048143;28;20064;-74
2024/01/18 08:38:42;;;;;;;5.60;1.02;;;;;;;;;;5047018;28;20053;-75
2024/01/18 08:41:10;;;;;;;7.07;1.40;;;;;;;;;;5078309;28;20049;-75
2024/01/18 08:43:37;;;;;;;8.07;1.50;;;;;;;;;;5046775;28;20049;-74
2024/01/18 08:46:06;;;;;;;4.28;1.20;;;;;;;;;;5048940;28;20033;-73
2024/01/18 08:48:35;;;;;;;8.63;1.35;;;;;;;;;;5045667;28;20053;-72
2024/01/18 08:51:04;;;;;;;7.75;1.65;;;;;;;;;;5049411;28;20329;-75
2024/01/18 08:53:33;;;;;;;10.95;1.85;;;;;;;;;;5049827;28;20267;-73
2024/01/18 08:56:00;;;;;;;10.18;1.92;;;;;;;;;;5046691;28;20435;-74
2024/01/18 08:58:26;;;;;;;8.60;1.23;;;;;;;;;;5047378;28;20044;-71
2024/01/18 09:00:52;;;;;;;6.85;1.30;;;;;;;;;;5045348;28;20386;-73
2024/01/18 09:03:19;;;;;;;3.40;1.05;;;;;;;;;;5044359;28;20119;-72
2024/01/18 09:05:48;;;;;;;6.82;1.25;;;;;;;;;;5047279;28;20270;-73
2024/01/18 09:08:16;;;;;;;6.50;1.58;;;;;;;;;;5046725;28;20059;-71
2024/01/18 09:10:42;;;;;;;6.30;1.38;;;;;;;;;;5072721;28;20404;-74
2024/01/18 09:13:08;;;;;;;9.40;1.63;;;;;;;;;;5046907;28;20052;-73
2024/01/18 09:15:35;;;;;;;6.63;1.52;;;;;;;;;;5040201;28;20451;-74
2024/01/18 09:18:06;;;;;;;8.82;1.42;;;;;;;;;;5062179;28;20059;-74
2024/01/18 09:20:33;;;;;;;4.47;1.08;;;;;;;;;;5056817;28;20044;-74
2024/01/18 09:23:00;;;;;;;7.25;1.10;;;;;;;;;;5044848;28;20053;-73
2024/01/18 09:25:27;;;;;;;3.17;0.93;;;;;;;;;;5055485;28;20060;-75
2024/01/18 09:27:54;;;;;;;3.17;1.10;;;;;;;;;;5054981;28;20059;-74
2024/01/18 09:30:23;;;;;;;5.47;0.95;;;;;;;;;;5075084;28;20433;-71
2024/01/18 09:32:49;;;;;;;3.63;1.02;;;;;;;;;;5052999;28;20059;-75
2024/01/18 09:35:15;;;;;;;6.63;1.55;;;;;;;;;;5052457;28;20041;-72
2024/01/18 09:37:42;;;;;;;5.05;1.52;;;;;;;;;;5047917;28;20061;-72
2024/01/18 09:40:11;;;;;;;3.63;0.93;;;;;;;;;;5047572;28;20068;-74
2024/01/18 09:42:45;;;;;;;9.57;1.25;;;;;;;;;;5050026;28;20623;-74
2024/01/18 09:45:14;;;;;;;7.97;1.40;;;;;;;;;;5042252;28;20069;-75
2024/01/18 09:47:44;;;;;;;4.05;1.20;;;;;;;;;;5046705;28;20505;-74
2024/01/18 09:50:10;;;;;;;3.25;1.10;;;;;;;;;;5044186;28;20049;-74
2024/01/18 09:52:38;;;;;;;2.72;1.10;;;;;;;;;;5051648;28;20524;-74
2024/01/18 09:55:08;;;;;;;4.63;1.20;;;;;;;;;;5051241;28;20076;-76
2024/01/18 09:57:35;;;;;;;4.00;1.10;;;;;;;;;;5049284;28;20500;-72
2024/01/18 10:00:10;;;;;;;3.00;1.00;;;;;;;;;;5049404;28;20051;-78
2024/01/18 10:02:38;;;;;;;6.70;1.35;;;;;;;;;;5044842;28;20072;-77
2024/01/18 10:05:05;;;;;;;4.15;0.85;;;;;;;;;;5046937;28;20055;-74
2024/01/18 10:07:33;;;;;;;4.85;1.33;;;;;;;;;;5051677;28;20045;-73
2024/01/18 10:10:03;;;;;;;10.23;1.30;;;;;;;;;;5049499;28;20041;-73
2024/01/18 10:12:30;;;;;;;8.30;1.63;;;;;;;;;;5049294;28;20522;-71
2024/01/18 10:14:57;;;;;;;4.10;1.20;;;;;;;;;;5048710;28;20049;-69
2024/01/18 10:17:23;;;;;;;6.50;1.42;;;;;;;;;;5048865;28;20056;-70
2024/01/18 10:19:56;;;;;;;6.25;1.20;;;;;;;;;;5048143;28;20041;-71
2024/01/18 10:22:24;;;;;;;5.88;0.88;;;;;;;;;;5031873;28;20516;-71
2024/01/18 10:24:51;;;;;;;3.58;1.20;;;;;;;;;;5046324;28;20056;-73
2024/01/18 10:27:22;;;;;;;4.90;1.27;;;;;;;;;;5049957;28;20260;-71
2024/01/18 10:29:52;;;;;;;3.33;0.80;;;;;;;;;;5059736;28;20056;-69
2024/01/18 10:32:21;;;;;;;3.25;0.98;;;;;;;;;;5049361;28;20065;-73
2024/01/18 10:34:49;;;;;;;4.82;0.98;;;;;;;;;;5055379;28;20074;-73
2024/01/18 10:37:18;;;;;;;7.95;1.52;;;;;;;;;;5045471;28;20033;-72
2024/01/18 10:39:46;;;;;;;9.95;1.13;;;;;;;;;;5052875;28;20041;-72
2024/01/18 10:42:13;;;;;;;5.03;1.20;;;;;;;;;;5055382;28;20065;-73
2024/01/18 10:44:44;;;;;;;5.03;0.90;;;;;;;;;;5053040;28;20190;-69
2024/01/18 10:47:11;;;;;;;2.55;0.88;;;;;;;;;;5047572;28;20064;-71
2024/01/18 10:49:40;;;;;;;3.00;0.80;;;;;;;;;;5041301;28;20068;-72
2024/01/18 10:52:10;;;;;;;4.30;1.00;;;;;;;;;;5052838;28;20150;-72
2024/01/18 10:54:37;;;;;;;4.50;1.20;;;;;;;;;;5046913;28;20064;-73
2024/01/18 10:57:04;;;;;;;2.17;0.77;;;;;;;;;;5048089;28;20067;-69
2024/01/18 10:59:31;;;;;;;4.82;1.10;;;;;;;;;;5048010;28;20045;-72
2024/01/18 11:01:59;;;;;;;2.15;0.90;;;;;;;;;;5045237;28;20052;-70
2024/01/18 11:04:33;;;;;;;2.95;1.15;;;;;;;;;;5045426;28;20053;-72
2024/01/18 11:06:59;;;;;;;4.93;1.10;;;;;;;;;;5054782;28;20055;-73
2024/01/18 11:09:27;;;;;;;3.28;0.90;;;;;;;;;;5053405;28;20489;-72
2024/01/18 11:11:56;;;;;;;2.47;0.90;;;;;;;;;;5046335;28;20366;-72
2024/01/18 11:14:27;;;;;;;3.17;1.00;;;;;;;;;;5051780;28;20045;-73
2024/01/18 11:17:11;;;;;;;2.83;0.73;;;;;;;;;;5050406;28;20044;-72
2024/01/18 11:19:41;;;;;;;6.32;0.85;;;;;;;;;;5044154;28;20064;-72
2024/01/18 11:22:21;;;;;;;4.10;1.20;;;;;;;;;;5046882;28;20045;-73
2024/01/18 11:24:47;;;;;;;2.80;1.00;;;;;;;;;;5044934;28;20053;-75
2024/01/18 11:27:23;;;;;;;8.48;1.48;;;;;;;;;;5045787;28;20405;-73
2024/01/18 11:29:51;;;;;;;2.17;1.10;;;;;;;;;;5046176;28;20037;-72
2024/01/18 11:32:22;;;;;;;4.40;1.23;;;;;;;;;;5077687;28;20053;-72
2024/01/18 11:34:49;;;;;;;4.00;1.30;;;;;;;;;;5051846;28;20045;-73
2024/01/18 11:37:24;;;;;;;3.53;0.90;;;;;;;;;;5051208;28;20093;-75
2024/01/18 11:39:53;;;;;;;2.72;0.80;;;;;;;;;;5047985;28;20191;-69
2024/01/18 11:42:30;;;;;;;3.72;1.13;;;;;;;;;;5044681;28;20061;-71
2024/01/18 11:45:05;;;;;;;1.70;0.80;;;;;;;;;;5045252;28;20047;-72
2024/01/18 11:47:33;;;;;;;4.90;0.98;;;;;;;;;;5047468;28;20049;-71
2024/01/18 11:50:05;;;;;;;4.20;1.02;;;;;;;;;;5045387;28;20079;-72
2024/01/18 11:52:46;;;;;;;7.43;1.40;;;;;;;;;;5049075;28;20048;-74
2024/01/18 11:55:16;;;;;;;3.97;1.20;;;;;;;;;;5045230;28;20060;-77
2024/01/18 11:57:44;;;;;;;6.28;1.75;;;;;;;;;;5058274;28;20049;-74
2024/01/18 12:00:12;;;;;;;3.15;1.13;;;;;;;;;;5046199;28;20041;-76
2024/01/18 12:02:38;;;;;;;5.10;1.00;;;;;;;;;;5043363;28;20245;-72
2024/01/18 12:05:07;;;;;;;6.28;1.20;;;;;;;;;;5040713;28;20052;-75
2024/01/18 12:07:38;;;;;;;9.52;1.25;;;;;;;;;;5047827;28;20040;-70
2024/01/18 12:10:06;;;;;;;5.25;1.20;;;;;;;;;;5046579;28;20048;-72
2024/01/18 12:12:33;;;;;;;8.52;1.13;;;;;;;;;;5047099;28;20143;-73
2024/01/18 12:15:01;;;;;;;3.30;0.80;;;;;;;;;;5045320;28;20049;-72
2024/01/18 12:17:28;;;;;;;6.05;1.30;;;;;;;;;;5063526;28;20075;-72
2024/01/18 12:19:54;;;;;;;3.92;1.20;;;;;;;;;;5048007;28;20118;-76
2024/01/18 12:22:25;;;;;;;5.03;1.20;;;;;;;;;;5046433;28;20057;-73
2024/01/18 12:24:52;;;;;;;5.72;1.45;;;;;;;;;;5058914;28;20195;-72
2024/01/18 12:27:19;;;;;;;3.75;1.10;;;;;;;;;;5047160;28;20489;-73
2024/01/18 12:29:46;;;;;;;5.70;1.17;;;;;;;;;;5046321;28;20124;-73
2024/01/18 12:32:18;;;;;;;7.32;1.00;;;;;;;;;;5052139;28;20044;-73
2024/01/18 12:34:57;;;;;;;18.50;1.17;;;;;;;;;;5045246;28;20322;-73
2024/01/18 12:37:24;;;;;;;6.45;1.05;;;;;;;;;;5047692;28;20114;-72
2024/01/18 12:39:52;;;;;;;6.78;1.02;;;;;;;;;;5045302;28;20480;-72
2024/01/18 12:42:23;;;;;;;4.07;0.88;;;;;;;;;;5061888;28;20068;-73
2024/01/18 12:44:52;;;;;;;5.30;1.13;;;;;;;;;;5035226;28;20044;-73
2024/01/18 12:47:19;;;;;;;5.13;1.15;;;;;;;;;;5043573;28;20052;-74
2024/01/18 12:49:45;;;;;;;6.38;1.30;;;;;;;;;;5045638;28;20071;-73
2024/01/18 12:52:17;;;;;;;3.10;1.08;;;;;;;;;;5056670;28;20057;-72
2024/01/18 12:54:44;;;;;;;5.20;1.17;;;;;;;;;;5067509;28;20048;-72
2024/01/18 12:57:12;;;;;;;5.32;0.98;;;;;;;;;;5049699;28;20044;-71
2024/01/18 12:59:40;;;;;;;8.25;1.52;;;;;;;;;;5050052;28;20068;-70
2024/01/18 13:02:06;;;;;;;5.68;1.20;;;;;;;;;;5047611;28;20041;-73
2024/01/18 13:04:35;;;;;;;2.97;1.00;;;;;;;;;;5050638;28;20694;-72
2024/01/18 13:07:11;;;;;;;3.97;1.00;;;;;;;;;;5054325;28;20112;-73
2024/01/18 13:09:37;;;;;;;4.88;0.82;;;;;;;;;;5049008;28;20186;-72
2024/01/18 13:12:05;;;;;;;3.40;0.65;;;;;;;;;;5050203;28;20706;-74
2024/01/18 13:14:35;;;;;;;3.17;0.88;;;;;;;;;;5045619;28;20456;-72
2024/01/18 13:17:01;;;;;;;3.47;0.90;;;;;;;;;;5050665;28;20102;-73
2024/01/18 13:19:29;;;;;;;3.67;1.27;;;;;;;;;;5050295;28;20049;-72
2024/01/18 13:21:56;;;;;;;6.18;1.13;;;;;;;;;;5055526;28;20048;-73
2024/01/18 13:24:22;;;;;;;5.78;1.17;;;;;;;;;;5059316;28;20043;-74
2024/01/18 13:26:50;;;;;;;3.97;1.08;;;;;;;;;;5059870;28;20052;-73
2024/01/18 13:29:16;;;;;;;6.07;0.93;;;;;;;;;;5051141;28;20510;-72
2024/01/18 13:31:46;;;;;;;3.92;0.82;;;;;;;;;;5072739;28;20052;-72
2024/01/18 13:34:15;;;;;;;2.60;0.75;;;;;;;;;;5051669;28;20428;-71
2024/01/18 13:36:44;;;;;;;6.55;0.80;;;;;;;;;;5046798;28;20053;-74
2024/01/18 13:39:10;;;;;;;3.15;0.80;;;;;;;;;;5048129;28;20037;-73
2024/01/18 13:41:40;;;;;;;2.88;1.20;;;;;;;;;;5050767;28;20044;-69
2024/01/18 13:44:07;;;;;;;5.70;0.90;;;;;;;;;;5067783;28;20061;-72
2024/01/18 13:46:33;;;;;;;6.03;1.05;;;;;;;;;;5050536;28;20102;-74
2024/01/18 13:49:00;;;;;;;7.00;1.10;;;;;;;;;;5045300;28;20056;-73
2024/01/18 13:51:30;;;;;;;2.17;0.73;;;;;;;;;;5050248;28;20057;-76
2024/01/18 13:53:56;;;;;;;7.63;0.80;;;;;;;;;;5052286;28;20064;-75
2024/01/18 13:56:23;;;;;;;3.50;0.88;;;;;;;;;;5064201;28;20592;-70
2024/01/18 13:58:53;;;;;;;4.97;0.98;;;;;;;;;;5047121;28;20416;-73
2024/01/18 14:01:21;;;;;;;5.90;0.70;;;;;;;;;;5050978;28;20048;-71
2024/01/18 14:03:49;;;;;;;1.02;0.57;;;;;;;;;;5045062;28;20051;-73
2024/01/18 14:06:19;;;;;;;4.03;0.77;;;;;;;;;;5048890;28;20087;-74
2024/01/18 14:08:47;;;;;;;3.55;0.85;;;;;;;;;;5048647;28;20647;-74
2024/01/18 14:11:14;;;;;;;2.33;0.70;;;;;;;;;;5046823;28;20142;-72
2024/01/18 14:13:41;;;;;;;1.50;0.50;;;;;;;;;;5043917;28;20140;-73
2024/01/18 14:16:08;;;;;;;4.53;0.80;;;;;;;;;;5049928;28;20083;-74
2024/01/18 14:18:35;;;;;;;3.78;1.00;;;;;;;;;;5050821;28;20052;-70
2024/01/18 14:21:02;;;;;;;2.65;0.80;;;;;;;;;;5046521;28;20067;-74
2024/01/18 14:23:29;;;;;;;2.42;1.10;;;;;;;;;;5048626;28;20736;-73
2024/01/18 14:25:56;;;;;;;4.68;1.10;;;;;;;;;;5065889;28;20037;-74
2024/01/18 14:28:25;;;;;;;8.73;1.00;;;;;;;;;;5049552;28;20049;-74
2024/01/18 14:30:53;;;;;;;4.68;0.82;;;;;;;;;;5048277;28;20053;-74
2024/01/18 14:33:21;;;;;;;6.30;1.10;;;;;;;;;;5052705;28;20056;-74
2024/01/18 14:35:50;;;;;;;2.45;0.80;;;;;;;;;;5058995;28;20349;-74
2024/01/18 14:38:16;;;;;;;3.45;0.82;;;;;;;;;;5057042;28;20048;-71
2024/01/18 14:40:44;;;;;;;3.40;0.60;;;;;;;;;;5046807;28;20048;-71
2024/01/18 14:43:13;;;;;;;2.20;0.88;;;;;;;;;;5049546;28;20147;-72
2024/01/18 14:45:43;;;;;;;4.07;1.00;;;;;;;;;;5046820;28;20041;-73
2024/01/18 14:48:14;;;;;;;1.55;0.50;;;;;;;;;;5051592;28;20147;-75